createdAt,value
2018-04-07T00:00:55.795Z,1018.21
2018-04-07T00:02:17.866Z,1018.24
2018-04-07T00:03:39.919Z,1018.24
2018-04-07T00:05:01.452Z,1018.24
2018-04-07T00:06:23.239Z,1018.23
2018-04-07T00:07:45.304Z,1018.19
2018-04-07T00:09:07.353Z,1018.15
2018-04-07T00:10:29.142Z,1018.14
2018-04-07T00:11:50.931Z,1018.08
2018-04-07T00:13:11.936Z,1018.08
2018-04-07T00:14:33.471Z,1018.1
2018-04-07T00:15:55.278Z,1018.08
2018-04-07T00:17:17.329Z,1018.11
2018-04-07T00:18:39.148Z,1018.14
2018-04-07T00:20:00.960Z,1018.15
2018-04-07T00:21:22.764Z,1018.16
2018-04-07T00:22:44.833Z,1018.17
2018-04-07T00:24:06.633Z,1018.17
2018-04-07T00:25:28.439Z,1018.07
2018-04-07T00:26:50.482Z,1018.18
2018-04-07T00:28:12.274Z,1018.13
2018-04-07T00:29:34.319Z,1018.08
2018-04-07T00:30:56.104Z,1018.08
2018-04-07T00:32:17.637Z,1018.06
2018-04-07T00:33:39.698Z,1018.05
2018-04-07T00:35:01.760Z,1018.03
2018-04-07T00:36:23.807Z,1017.99
2018-04-07T00:37:45.879Z,1017.92
2018-04-07T00:39:07.936Z,1017.94
2018-04-07T00:40:29.728Z,1017.94
2018-04-07T00:41:51.279Z,1017.9
2018-04-07T00:43:13.069Z,1017.88
2018-04-07T00:44:35.135Z,1017.84
2018-04-07T00:45:56.665Z,1017.74
2018-04-07T00:47:18.460Z,1017.7
2018-04-07T00:48:40.537Z,1017.74
2018-04-07T00:50:02.332Z,1017.64
2018-04-07T00:51:23.597Z,1017.62
2018-04-07T00:52:45.122Z,1017.6
2018-04-07T00:54:06.922Z,1017.5
2018-04-07T00:55:28.713Z,1017.5
2018-04-07T00:56:50.759Z,1017.47
2018-04-07T00:58:12.554Z,1017.47
2018-04-07T00:59:34.350Z,1017.5
2018-04-07T01:00:56.142Z,1017.5
2018-04-07T01:02:17.936Z,1017.55
2018-04-07T01:03:39.465Z,1017.51
2018-04-07T01:05:01.243Z,1017.46
2018-04-07T01:06:23.026Z,1017.45
2018-04-07T01:07:44.841Z,1017.42
2018-04-07T01:09:06.376Z,1017.43
2018-04-07T01:10:28.163Z,1017.36
2018-04-07T01:11:49.952Z,1017.44
2018-04-07T01:13:11.748Z,1017.44
2018-04-07T01:14:33.535Z,1017.43
2018-04-07T01:15:55.596Z,1017.47
2018-04-07T01:17:17.383Z,1017.42
2018-04-07T01:18:39.188Z,1017.44
2018-04-07T01:20:01.260Z,1017.44
2018-04-07T01:21:23.319Z,1017.4
2018-04-07T01:22:45.372Z,1017.39
2018-04-07T01:24:07.159Z,1017.41
2018-04-07T01:25:28.177Z,1017.4
2018-04-07T01:26:49.708Z,1017.39
2018-04-07T01:28:10.994Z,1017.35
2018-04-07T01:29:32.767Z,1017.34
2018-04-07T01:30:54.313Z,1017.32
2018-04-07T01:32:16.098Z,1017.35
2018-04-07T01:33:37.900Z,1017.31
2018-04-07T01:34:59.170Z,1017.33
2018-04-07T01:36:20.737Z,1017.32
2018-04-07T01:37:42.265Z,1017.28
2018-04-07T01:39:04.067Z,1017.28
2018-04-07T01:40:26.117Z,1017.29
2018-04-07T01:41:48.171Z,1017.25
2018-04-07T01:43:09.967Z,1017.31
2018-04-07T01:44:32.017Z,1017.33
2018-04-07T01:45:53.295Z,1017.32
2018-04-07T01:47:15.413Z,1017.25
2018-04-07T01:48:37.204Z,1017.3
2018-04-07T01:49:59.009Z,1017.26
2018-04-07T01:51:21.066Z,1017.31
2018-04-07T01:52:42.588Z,1017.21
2018-04-07T01:54:04.129Z,1017.3
2018-04-07T01:55:25.916Z,1017.28
2018-04-07T01:56:47.958Z,1017.3
2018-04-07T01:58:09.220Z,1017.35
2018-04-07T01:59:31.024Z,1017.36
2018-04-07T02:00:52.289Z,1017.37
2018-04-07T02:02:14.097Z,1017.35
2018-04-07T02:03:36.154Z,1017.33
2018-04-07T02:04:58.220Z,1017.39
2018-04-07T02:06:20.009Z,1017.3
2018-04-07T02:07:41.549Z,1017.34
2018-04-07T02:09:03.335Z,1017.31
2018-04-07T02:10:25.389Z,1017.29
2018-04-07T02:11:47.444Z,1017.27
2018-04-07T02:13:08.974Z,1017.27
2018-04-07T02:14:30.756Z,1017.28
2018-04-07T02:15:52.023Z,1017.24
2018-04-07T02:17:13.556Z,1017.25
2018-04-07T02:18:35.341Z,1017.22
2018-04-07T02:19:56.875Z,1017.23
2018-04-07T02:21:18.407Z,1017.2
2018-04-07T02:22:40.195Z,1017.27
2018-04-07T02:24:02.044Z,1017.29
2018-04-07T02:25:23.863Z,1017.37
2018-04-07T02:26:45.652Z,1017.38
2018-04-07T02:28:07.697Z,1017.39
2018-04-07T02:29:28.966Z,1017.41
2018-04-07T02:30:51.023Z,1017.42
2018-04-07T02:32:13.073Z,1017.39
2018-04-07T02:33:34.876Z,1017.34
2018-04-07T02:34:56.669Z,1017.39
2018-04-07T02:36:18.474Z,1017.38
2018-04-07T02:37:40.012Z,1017.39
2018-04-07T02:39:01.804Z,1017.36
2018-04-07T02:40:23.388Z,1017.33
2018-04-07T02:41:45.205Z,1017.33
2018-04-07T02:43:06.721Z,1017.37
2018-04-07T02:44:28.266Z,1017.34
2018-04-07T02:45:50.055Z,1017.33
2018-04-07T02:47:12.137Z,1017.34
2018-04-07T02:48:33.667Z,1017.39
2018-04-07T02:49:55.199Z,1017.29
2018-04-07T02:51:17.285Z,1017.24
2018-04-07T02:52:39.071Z,1017.24
2018-04-07T02:54:00.612Z,1017.28
2018-04-07T02:55:22.404Z,1017.21
2018-04-07T02:56:43.924Z,1017.22
2018-04-07T02:58:05.994Z,1017.22
2018-04-07T02:59:28.064Z,1017.23
2018-04-07T03:00:49.602Z,1017.19
2018-04-07T03:02:10.883Z,1017.19
2018-04-07T03:03:32.427Z,1017.19
2018-04-07T03:04:54.314Z,1017.16
2018-04-07T03:06:16.111Z,1017.09
2018-04-07T03:07:37.909Z,1017.13
2018-04-07T03:08:59.454Z,1017.1
2018-04-07T03:10:20.990Z,1017.1
2018-04-07T03:11:42.769Z,1017.13
2018-04-07T03:13:04.565Z,1017.18
2018-04-07T03:14:26.345Z,1017.12
2018-04-07T03:15:48.136Z,1017.18
2018-04-07T03:17:09.927Z,1017.15
2018-04-07T03:18:31.972Z,1017.18
2018-04-07T03:19:53.756Z,1017.12
2018-04-07T03:21:15.550Z,1017.14
2018-04-07T03:22:37.341Z,1017.14
2018-04-07T03:23:59.132Z,1017.09
2018-04-07T03:25:20.935Z,1017.09
2018-04-07T03:26:42.717Z,1017.06
2018-04-07T03:28:04.536Z,1017.03
2018-04-07T03:29:26.062Z,1017
2018-04-07T03:30:47.845Z,1016.98
2018-04-07T03:32:09.903Z,1017.04
2018-04-07T03:33:31.439Z,1016.97
2018-04-07T03:34:52.968Z,1017.02
2018-04-07T03:36:14.758Z,1016.97
2018-04-07T03:37:36.284Z,1016.97
2018-04-07T03:38:58.074Z,1016.96
2018-04-07T03:40:20.129Z,1016.93
2018-04-07T03:41:42.182Z,1016.9
2018-04-07T03:43:03.971Z,1016.9
2018-04-07T03:44:26.063Z,1016.87
2018-04-07T03:45:47.587Z,1016.86
2018-04-07T03:47:09.636Z,1016.86
2018-04-07T03:48:31.432Z,1016.87
2018-04-07T03:49:53.229Z,1016.87
2018-04-07T03:51:15.275Z,1016.88
2018-04-07T03:52:36.537Z,1016.85
2018-04-07T03:53:58.076Z,1016.87
2018-04-07T03:55:20.127Z,1016.84
2018-04-07T03:56:41.912Z,1016.81
2018-04-07T03:58:03.701Z,1016.79
2018-04-07T03:59:24.960Z,1016.78
2018-04-07T04:00:47.020Z,1016.74
2018-04-07T04:02:09.077Z,1016.7
2018-04-07T04:03:31.119Z,1016.73
2018-04-07T04:04:52.650Z,1016.73
2018-04-07T04:06:14.424Z,1016.72
2018-04-07T04:07:36.207Z,1016.72
2018-04-07T04:08:57.993Z,1016.7
2018-04-07T04:10:20.047Z,1016.7
2018-04-07T04:11:41.832Z,1016.66
2018-04-07T04:13:03.614Z,1016.63
2018-04-07T04:14:25.654Z,1016.65
2018-04-07T04:15:47.710Z,1016.64
2018-04-07T04:17:08.982Z,1016.6
2018-04-07T04:18:30.514Z,1016.59
2018-04-07T04:19:52.047Z,1016.61
2018-04-07T04:21:13.824Z,1016.55
2018-04-07T04:22:35.875Z,1016.6
2018-04-07T04:23:57.403Z,1016.54
2018-04-07T04:25:18.933Z,1016.53
2018-04-07T04:26:40.452Z,1016.51
2018-04-07T04:28:02.248Z,1016.51
2018-04-07T04:29:24.046Z,1016.51
2018-04-07T04:30:45.312Z,1016.5
2018-04-07T04:32:06.835Z,1016.48
2018-04-07T04:33:28.613Z,1016.46
2018-04-07T04:34:49.881Z,1016.45
2018-04-07T04:36:11.941Z,1016.47
2018-04-07T04:37:34.040Z,1016.46
2018-04-07T04:38:56.099Z,1016.45
2018-04-07T04:40:17.623Z,1016.43
2018-04-07T04:41:39.677Z,1016.39
2018-04-07T04:43:01.194Z,1016.39
2018-04-07T04:44:23.243Z,1016.37
2018-04-07T04:45:45.291Z,1016.35
2018-04-07T04:47:06.826Z,1016.34
2018-04-07T04:48:28.607Z,1016.36
2018-04-07T04:49:50.704Z,1016.36
2018-04-07T04:51:12.218Z,1016.36
2018-04-07T04:52:34.006Z,1016.34
2018-04-07T04:53:55.809Z,1016.37
2018-04-07T04:55:17.604Z,1016.37
2018-04-07T04:56:39.403Z,1016.38
2018-04-07T04:58:01.450Z,1016.33
2018-04-07T04:59:22.728Z,1016.35
2018-04-07T05:00:44.260Z,1016.34
2018-04-07T05:02:05.787Z,1016.3
2018-04-07T05:03:27.570Z,1016.34
2018-04-07T05:04:49.103Z,1016.34
2018-04-07T05:06:11.168Z,1016.34
2018-04-07T05:07:32.706Z,1016.36
2018-04-07T05:08:54.233Z,1016.36
2018-04-07T05:10:16.311Z,1016.34
2018-04-07T05:11:37.588Z,1016.32
2018-04-07T05:12:59.420Z,1016.31
2018-04-07T05:14:21.522Z,1016.33
2018-04-07T05:15:43.314Z,1016.3
2018-04-07T05:17:05.362Z,1016.38
2018-04-07T05:18:27.398Z,1016.33
2018-04-07T05:19:48.924Z,1016.33
2018-04-07T05:21:10.978Z,1016.36
2018-04-07T05:22:32.781Z,1016.36
2018-04-07T05:23:54.302Z,1016.32
2018-04-07T05:25:16.115Z,1016.3
2018-04-07T05:26:37.916Z,1016.31
2018-04-07T05:27:59.711Z,1016.3
2018-04-07T05:29:21.757Z,1016.23
2018-04-07T05:30:43.806Z,1016.28
2018-04-07T05:32:05.861Z,1016.25
2018-04-07T05:33:27.926Z,1016.24
2018-04-07T05:34:48.939Z,1016.23
2018-04-07T05:36:10.982Z,1016.2
2018-04-07T05:37:33.027Z,1016.26
2018-04-07T05:38:54.816Z,1016.25
2018-04-07T05:40:16.346Z,1016.23
2018-04-07T05:41:38.445Z,1016.24
2018-04-07T05:43:00.223Z,1016.24
2018-04-07T05:44:22.286Z,1016.24
2018-04-07T05:45:44.070Z,1016.23
2018-04-07T05:47:05.910Z,1016.26
2018-04-07T05:48:27.701Z,1016.32
2018-04-07T05:49:49.741Z,1016.27
2018-04-07T05:51:11.820Z,1016.35
2018-04-07T05:52:33.619Z,1016.33
2018-04-07T05:53:55.418Z,1016.29
2018-04-07T05:55:17.506Z,1016.24
2018-04-07T05:56:39.037Z,1016.28
2018-04-07T05:58:00.575Z,1016.24
2018-04-07T05:59:22.656Z,1016.26
2018-04-07T06:00:44.728Z,1016.27
2018-04-07T06:02:06.786Z,1016.2
2018-04-07T06:03:28.605Z,1016.28
2018-04-07T06:04:50.419Z,1016.28
2018-04-07T06:06:12.221Z,1016.33
2018-04-07T06:07:33.748Z,1016.36
2018-04-07T06:08:55.815Z,1016.36
2018-04-07T06:10:17.618Z,1016.38
2018-04-07T06:11:39.157Z,1016.38
2018-04-07T06:13:01.207Z,1016.38
2018-04-07T06:14:22.780Z,1016.38
2018-04-07T06:15:44.338Z,1016.33
2018-04-07T06:17:06.154Z,1016.31
2018-04-07T06:18:28.237Z,1016.22
2018-04-07T06:19:50.314Z,1016.27
2018-04-07T06:21:12.410Z,1016.17
2018-04-07T06:22:34.478Z,1016.27
2018-04-07T06:23:56.682Z,1016.26
2018-04-07T06:25:18.504Z,1016.25
2018-04-07T06:26:40.332Z,1016.26
2018-04-07T06:28:02.108Z,1016.32
2018-04-07T06:29:23.657Z,1016.31
2018-04-07T06:30:45.465Z,1016.38
2018-04-07T06:32:07.535Z,1016.31
2018-04-07T06:33:29.325Z,1016.31
2018-04-07T06:34:51.214Z,1016.33
2018-04-07T06:36:13.412Z,1016.31
2018-04-07T06:37:35.481Z,1016.32
2018-04-07T06:38:57.299Z,1016.29
2018-04-07T06:40:18.852Z,1016.33
2018-04-07T06:41:40.659Z,1016.25
2018-04-07T06:43:02.573Z,1016.23
2018-04-07T06:44:24.654Z,1016.29
2018-04-07T06:45:46.200Z,1016.27
2018-04-07T06:47:08.009Z,1016.25
2018-04-07T06:48:29.836Z,1016.23
2018-04-07T06:49:51.653Z,1016.19
2018-04-07T06:51:13.203Z,1016.14
2018-04-07T06:52:34.766Z,1016.2
2018-04-07T06:53:56.587Z,1016.23
2018-04-07T06:55:18.671Z,1016.15
2018-04-07T06:56:40.752Z,1016.13
2018-04-07T06:58:02.591Z,1016.05
2018-04-07T06:59:24.694Z,1016.05
2018-04-07T07:00:46.503Z,1016
2018-04-07T07:02:08.325Z,1016.09
2018-04-07T07:03:30.197Z,1016.07
2018-04-07T07:04:52.267Z,1016.08
2018-04-07T07:06:14.334Z,1016.07
2018-04-07T07:07:36.415Z,1016.05
2018-04-07T07:08:58.255Z,1016.08
2018-04-07T07:10:20.341Z,1016.07
2018-04-07T07:11:42.408Z,1016.05
2018-04-07T07:13:04.228Z,1016.08
2018-04-07T07:14:25.514Z,1016.06
2018-04-07T07:15:47.084Z,1016.03
2018-04-07T07:17:08.881Z,1016
2018-04-07T07:18:30.714Z,1016.01
2018-04-07T07:19:52.785Z,1016.02
2018-04-07T07:21:14.642Z,1016.05
2018-04-07T07:22:36.750Z,1015.99
2018-04-07T07:23:58.833Z,1015.94
2018-04-07T07:25:20.927Z,1015.97
2018-04-07T07:26:42.230Z,1016
2018-04-07T07:28:04.313Z,1015.91
2018-04-07T07:29:26.137Z,1015.92
2018-04-07T07:30:47.708Z,1015.9
2018-04-07T07:32:09.778Z,1015.9
2018-04-07T07:33:31.596Z,1015.89
2018-04-07T07:34:53.686Z,1015.87
2018-04-07T07:36:15.264Z,1015.9
2018-04-07T07:37:37.377Z,1015.88
2018-04-07T07:38:59.436Z,1015.85
2018-04-07T07:40:21.523Z,1015.89
2018-04-07T07:41:43.606Z,1015.91
2018-04-07T07:43:05.623Z,1015.85
2018-04-07T07:44:26.931Z,1015.81
2018-04-07T07:45:49.027Z,1015.78
2018-04-07T07:47:11.121Z,1015.64
2018-04-07T07:48:32.997Z,1015.65
2018-04-07T07:49:55.087Z,1015.56
2018-04-07T07:51:16.914Z,1015.6
2018-04-07T07:52:39.012Z,1015.63
2018-04-07T07:54:00.889Z,1015.62
2018-04-07T07:55:22.968Z,1015.58
2018-04-07T07:56:44.785Z,1015.59
2018-04-07T07:58:06.333Z,1015.53
2018-04-07T07:59:28.432Z,1015.5
2018-04-07T08:00:50.525Z,1015.52
2018-04-07T08:02:12.608Z,1015.54
2018-04-07T08:03:33.901Z,1015.38
2018-04-07T08:04:55.731Z,1015.37
2018-04-07T08:06:17.841Z,1015.32
2018-04-07T08:08:11.551Z,1015.32
2018-04-07T08:09:33.090Z,1015.31
2018-04-07T08:10:55.162Z,1015.27
2018-04-07T08:12:16.973Z,1015.31
2018-04-07T08:13:38.805Z,1015.36
2018-04-07T08:15:00.882Z,1015.33
2018-04-07T08:16:22.961Z,1015.34
2018-04-07T08:17:44.778Z,1015.32
2018-04-07T08:19:06.845Z,1015.28
2018-04-07T08:20:28.914Z,1015.33
2018-04-07T08:21:50.992Z,1015.29
2018-04-07T08:23:13.070Z,1015.27
2018-04-07T08:24:35.133Z,1015.2
2018-04-07T08:25:56.704Z,1015.25
2018-04-07T08:27:18.880Z,1015.14
2018-04-07T08:28:41.006Z,1015.11
2018-04-07T08:30:03.093Z,1015.1
2018-04-07T08:31:24.886Z,1015.12
2018-04-07T08:32:46.430Z,1015.15
2018-04-07T08:34:07.976Z,1015.18
2018-04-07T08:35:30.062Z,1015.23
2018-04-07T08:36:52.187Z,1015.26
2018-04-07T08:38:15.598Z,1015.18
2018-04-07T08:39:37.674Z,1015.12
2018-04-07T08:40:59.800Z,1015.11
2018-04-07T08:42:21.364Z,1015.08
2018-04-07T08:43:43.443Z,1015.11
2018-04-07T08:45:05.265Z,1015.07
2018-04-07T08:46:27.485Z,1015.06
2018-04-07T08:47:49.306Z,1015.05
2018-04-07T08:49:11.125Z,1015.05
2018-04-07T08:50:32.685Z,1015.07
2018-04-07T08:51:54.495Z,1015.13
2018-04-07T08:53:16.330Z,1015.17
2018-04-07T08:54:37.889Z,1015.21
2018-04-07T08:55:59.154Z,1015.18
2018-04-07T08:57:20.993Z,1015.19
2018-04-07T08:58:42.897Z,1015.19
2018-04-07T09:00:05.008Z,1015.16
2018-04-07T09:01:26.820Z,1015.19
2018-04-07T09:02:48.902Z,1015.13
2018-04-07T09:04:10.433Z,1015.18
2018-04-07T09:05:31.990Z,1015.15
2018-04-07T09:06:53.814Z,1015.25
2018-04-07T09:08:15.642Z,1015.24
2018-04-07T09:09:37.463Z,1015.23
2018-04-07T09:10:59.542Z,1015.23
2018-04-07T09:12:21.623Z,1015.22
2018-04-07T09:13:43.447Z,1015.22
2018-04-07T09:15:05.533Z,1015.24
2018-04-07T09:16:27.354Z,1015.17
2018-04-07T09:17:49.425Z,1015.19
2018-04-07T09:19:11.280Z,1015.17
2018-04-07T09:20:33.119Z,1015.19
2018-04-07T09:21:54.941Z,1015.19
2018-04-07T09:23:16.738Z,1015.16
2018-04-07T09:24:38.542Z,1015.14
2018-04-07T09:26:00.356Z,1015.17
2018-04-07T09:27:22.158Z,1015.17
2018-04-07T09:28:43.984Z,1015.18
2018-04-07T09:30:06.082Z,1015.15
2018-04-07T09:31:27.937Z,1015.15
2018-04-07T09:32:50.031Z,1015.17
2018-04-07T09:34:11.846Z,1015.11
2018-04-07T09:35:33.941Z,1015.12
2018-04-07T09:36:55.743Z,1015.09
2018-04-07T09:38:17.819Z,1015.11
2018-04-07T09:39:39.373Z,1015.12
2018-04-07T09:41:00.921Z,1015.11
2018-04-07T09:42:23.045Z,1015.11
2018-04-07T09:43:44.861Z,1015.09
2018-04-07T09:45:06.679Z,1015.13
2018-04-07T09:46:28.486Z,1015.03
2018-04-07T09:47:50.554Z,1015.06
2018-04-07T09:49:12.613Z,1015.03
2018-04-07T09:50:34.707Z,1015.05
2018-04-07T09:51:56.869Z,1014.98
2018-04-07T09:53:18.688Z,1015.02
2018-04-07T09:54:40.762Z,1015.02
2018-04-07T09:56:02.858Z,1015.05
2018-04-07T09:57:24.665Z,1015.04
2018-04-07T09:58:46.745Z,1015.03
2018-04-07T10:00:08.824Z,1015.01
2018-04-07T10:01:30.908Z,1015.05
2018-04-07T10:02:52.970Z,1015
2018-04-07T10:04:15.059Z,1015.02
2018-04-07T10:05:37.131Z,1015.03
2018-04-07T10:06:58.431Z,1015.05
2018-04-07T10:08:20.513Z,1015.08
2018-04-07T10:09:42.609Z,1015.12
2018-04-07T10:11:04.699Z,1015.09
2018-04-07T10:12:26.288Z,1015.06
2018-04-07T10:13:48.366Z,1015.06
2018-04-07T10:15:10.444Z,1014.97
